createdAt,value
2018-10-16T00:01:26.213Z,1010.9
2018-10-16T00:13:07.671Z,1011.0
2018-10-16T00:36:53.298Z,1011.2
2018-10-16T00:48:15.432Z,1011.3
2018-10-16T00:58:45.116Z,1011.4
2018-10-16T01:09:47.159Z,1011.5
2018-10-16T01:20:36.250Z,1011.5
2018-10-16T01:32:08.029Z,1011.6
2018-10-16T01:43:17.432Z,1011.6
2018-10-16T01:55:34.592Z,1011.7
2018-10-16T02:09:46.470Z,1011.7
2018-10-16T02:20:57.279Z,1011.9
2018-10-16T02:43:32.504Z,1012.0
2018-10-16T03:10:46.398Z,1012.0
2018-10-16T03:36:32.324Z,1012.2
2018-10-16T04:01:09.457Z,1012.4
2018-10-16T04:11:29.382Z,1012.4
2018-10-16T04:22:38.863Z,1012.4
2018-10-16T04:43:26.522Z,1012.3
2018-10-16T04:54:23.983Z,1012.5
2018-10-16T05:04:42.033Z,1012.5
2018-10-16T05:15:32.709Z,1012.7
2018-10-16T05:26:27.795Z,1012.6
2018-10-16T05:38:09.381Z,1012.7
2018-10-16T06:23:00.275Z,1013.2
2018-10-16T06:35:58.126Z,1013.2
2018-10-16T06:47:26.882Z,1013.3
2018-10-16T06:58:16.196Z,1013.4
2018-10-16T07:09:26.158Z,1013.5
2018-10-16T07:19:44.251Z,1013.6
2018-10-16T07:31:00.515Z,1013.7
2018-10-16T07:42:20.927Z,1013.8
2018-10-16T07:53:25.968Z,1014.0
2018-10-16T08:03:58.441Z,1013.9
2018-10-16T08:14:49.945Z,1013.8
2018-10-16T08:27:35.161Z,1013.9
2018-10-16T08:50:21.772Z,1013.3
2018-10-16T09:02:43.000Z,1013.4
2018-10-16T09:12:58.526Z,1013.5
2018-10-16T09:25:12.465Z,1013.8
2018-10-16T09:38:07.356Z,1013.9
2018-10-16T09:48:56.263Z,1013.8
2018-10-16T10:01:17.408Z,1013.5
2018-10-16T10:12:12.909Z,1013.7
2018-10-16T10:22:47.272Z,1013.9
2018-10-16T10:43:49.799Z,1013.0
2018-10-16T10:54:35.263Z,1012.8
2018-10-16T11:05:37.929Z,1012.7
2018-10-16T11:18:10.920Z,1012.7
2018-10-16T11:29:06.095Z,1012.6
2018-10-16T11:39:48.549Z,1012.4
2018-10-16T11:50:30.452Z,1012.4
2018-10-16T12:02:29.201Z,1012.5
2018-10-16T12:13:54.225Z,1012.3
2018-10-16T12:25:18.675Z,1012.5
2018-10-16T12:35:52.020Z,1012.5
2018-10-16T12:46:06.891Z,1012.6
2018-10-16T12:57:31.274Z,1012.7
2018-10-16T13:08:34.166Z,1013.0
2018-10-16T13:19:20.015Z,1013.1
2018-10-16T13:40:37.997Z,1013.5
2018-10-16T13:51:45.116Z,1013.4
2018-10-16T14:03:15.202Z,1013.3
2018-10-16T14:15:30.722Z,1013.2
2018-10-16T14:27:19.758Z,1013.3
2018-10-16T14:38:24.524Z,1013.1
2018-10-16T14:49:34.921Z,1012.8
2018-10-16T15:01:48.098Z,1012.8
2018-10-16T15:14:46.391Z,1012.8
2018-10-16T15:30:51.372Z,1012.9
2018-10-16T16:46:20.052Z,1013.3
2018-10-16T16:57:49.290Z,1013.5
2018-10-16T17:11:50.354Z,1013.7
2018-10-16T19:18:19.967Z,1014.0
2018-10-16T19:43:27.028Z,1014.0
2018-10-16T20:48:57.741Z,1014.2
2018-10-16T21:23:42.636Z,1014.1
2018-10-16T21:37:43.796Z,1014.1
2018-10-16T22:02:56.369Z,1014.0
2018-10-16T22:16:41.437Z,1014.1
